Time;durP1;ratioP1;P1;durP2;ratioP2;P2;SDS_P1;SDS_P2;PMS_P1;PMS_P2;Temp;Humidity;BMP_temperature;BMP_pressure;BME280_temperature;BME280_humidity;BME280_pressure;Samples;Min_cycle;Max_cycle;Signal;HPM_P1;HPM_P2
2023/10/26 00:02:15;;;;;;;0.97;0.97;;;;;;;22.18;62.93;95733.16;4996861;28;20285;-26
2023/10/26 00:04:41;;;;;;;1.13;1.07;;;;;;;22.18;62.83;95739.16;4994232;28;20234;-26
2023/10/26 00:07:08;;;;;;;1.00;1.00;;;;;;;22.18;62.94;95741.72;4995291;28;20261;-27
2023/10/26 00:09:35;;;;;;;0.87;0.87;;;;;;;22.19;63.04;95742.53;4995021;28;20211;-27
2023/10/26 00:12:02;;;;;;;1.00;1.00;;;;;;;22.18;63.14;95735.72;4992860;28;20257;-26
2023/10/26 00:14:29;;;;;;;1.00;1.00;;;;;;;22.19;62.92;95737.41;4998834;28;20265;-26
2023/10/26 00:16:55;;;;;;;1.10;1.10;;;;;;;22.19;62.88;95737.41;4987971;28;20266;-26
2023/10/26 00:19:22;;;;;;;1.10;1.00;;;;;;;22.19;63.02;95732.31;4998149;28;20692;-26
2023/10/26 00:21:48;;;;;;;1.10;1.10;;;;;;;22.19;63.00;95742.53;4983144;28;20286;-31
2023/10/26 00:24:15;;;;;;;1.10;1.03;;;;;;;22.20;62.99;95736.59;4997416;28;20226;-28
2023/10/26 00:26:42;;;;;;;0.97;0.97;;;;;;;22.19;62.74;95735.72;4976573;28;20636;-26
2023/10/26 00:29:08;;;;;;;1.00;1.00;;;;;;;22.19;62.85;95733.16;4992340;28;20202;-26
2023/10/26 00:31:35;;;;;;;0.90;0.90;;;;;;;22.18;62.95;95731.47;4997943;28;20241;-26
2023/10/26 00:34:01;;;;;;;1.07;1.00;;;;;;;22.19;62.99;95730.59;4984645;28;20639;-33
2023/10/26 00:36:28;;;;;;;1.13;1.10;;;;;;;22.20;63.03;95728.91;4999956;28;20208;-26
2023/10/26 00:38:54;;;;;;;0.90;0.90;;;;;;;22.20;62.85;95728.91;4987103;28;20310;-26
2023/10/26 00:41:21;;;;;;;1.27;1.17;;;;;;;22.19;62.73;95725.50;4990068;28;20284;-26
2023/10/26 00:43:48;;;;;;;1.10;1.00;;;;;;;22.19;62.80;95724.63;4990850;28;20728;-28
2023/10/26 00:46:14;;;;;;;0.83;0.83;;;;;;;22.18;62.77;95738.28;4996418;28;20230;-26
2023/10/26 00:48:41;;;;;;;1.00;0.80;;;;;;;22.18;62.76;95733.16;4979580;28;20238;-26
2023/10/26 00:51:07;;;;;;;0.90;0.90;;;;;;;22.18;62.93;95744.28;4994223;28;20206;-28
2023/10/26 00:53:34;;;;;;;0.90;0.90;;;;;;;22.18;62.82;95741.72;4998743;28;20230;-27
2023/10/26 00:56:01;;;;;;;1.07;1.00;;;;;;;22.19;62.96;95739.97;4991817;28;20235;-26
2023/10/26 00:58:29;;;;;;;0.97;0.97;;;;;;;22.15;62.83;95728.91;4976849;28;20207;-33
2023/10/26 01:00:55;;;;;;;1.70;1.03;;;;;;;22.16;63.03;95740.84;4966726;28;20203;-26
2023/10/26 01:03:23;;;;;;;1.00;0.90;;;;;;;22.17;62.96;95739.16;4989740;28;20501;-28
2023/10/26 01:05:50;;;;;;;0.90;0.90;;;;;;;22.18;63.04;95739.16;4986221;28;20207;-26
2023/10/26 01:08:16;;;;;;;0.80;0.80;;;;;;;22.18;63.01;95743.41;4992015;28;20249;-28
2023/10/26 01:10:43;;;;;;;0.93;0.93;;;;;;;22.17;63.01;95750.22;4993275;28;20261;-26
2023/10/26 01:13:09;;;;;;;1.03;1.00;;;;;;;22.16;62.97;95740.84;4994589;28;20225;-27
2023/10/26 01:15:36;;;;;;;1.00;1.00;;;;;;;22.18;62.99;95749.38;4963496;28;20274;-26
2023/10/26 01:18:03;;;;;;;1.00;1.00;;;;;;;22.18;63.22;95748.53;5001579;28;20545;-32
2023/10/26 01:20:30;;;;;;;1.10;1.10;;;;;;;22.17;63.07;95747.66;5000043;28;20210;-26
2023/10/26 01:22:56;;;;;;;1.00;1.00;;;;;;;22.18;62.96;95758.75;4996188;28;20250;-26
2023/10/26 01:25:23;;;;;;;0.90;0.90;;;;;;;22.17;63.12;95747.66;4986920;28;20761;-26
2023/10/26 01:27:49;;;;;;;1.20;1.20;;;;;;;22.17;63.06;95749.38;4996536;28;20223;-26
2023/10/26 01:30:16;;;;;;;1.23;1.13;;;;;;;22.17;62.87;95757.06;4995352;28;20230;-26
2023/10/26 01:32:43;;;;;;;0.97;0.97;;;;;;;22.16;62.78;95753.63;4994780;28;20233;-29
2023/10/26 01:35:10;;;;;;;0.90;0.90;;;;;;;22.16;62.95;95745.97;4999639;28;20685;-26
2023/10/26 01:37:37;;;;;;;0.90;0.90;;;;;;;22.16;62.85;95738.28;4996367;28;20203;-26
2023/10/26 01:40:06;;;;;;;0.90;0.90;;;;;;;22.16;63.15;95738.28;4996819;28;20239;-26
2023/10/26 01:42:33;;;;;;;0.90;0.90;;;;;;;22.16;63.15;95733.16;4999230;28;20231;-26
2023/10/26 01:44:59;;;;;;;1.10;1.00;;;;;;;22.16;63.15;95729.75;4991917;28;20235;-26
2023/10/26 01:47:26;;;;;;;0.80;0.80;;;;;;;22.15;63.03;95723.81;5001319;28;20226;-30
2023/10/26 01:49:53;;;;;;;0.80;0.80;;;;;;;22.16;62.78;95730.63;4998025;28;20246;-26
2023/10/26 01:52:19;;;;;;;0.90;0.90;;;;;;;22.17;63.24;95731.47;4998972;28;20238;-26
2023/10/26 01:54:47;;;;;;;0.80;0.80;;;;;;;22.16;63.20;95725.50;4994248;28;20683;-26
2023/10/26 01:57:13;;;;;;;0.90;0.90;;;;;;;22.16;63.12;95730.63;4998997;28;20203;-26
2023/10/26 01:59:40;;;;;;;0.90;0.90;;;;;;;22.16;63.19;95730.63;4994446;28;20235;-28
2023/10/26 02:02:06;;;;;;;0.83;0.83;;;;;;;22.13;63.05;95715.28;5001624;28;20590;-29
2023/10/26 02:04:33;;;;;;;0.90;0.90;;;;;;;22.16;63.27;95719.53;4998440;28;20262;-26
2023/10/26 02:07:00;;;;;;;0.97;0.97;;;;;;;22.16;63.12;95710.16;5000070;28;20215;-26
2023/10/26 02:09:26;;;;;;;0.90;0.90;;;;;;;22.16;63.13;95707.59;4993103;28;20297;-26
2023/10/26 02:11:53;;;;;;;1.00;0.90;;;;;;;22.16;62.90;95714.41;4997766;28;20752;-30
2023/10/26 02:14:19;;;;;;;0.80;0.80;;;;;;;22.15;62.83;95712.72;5000459;28;20234;-26
2023/10/26 02:16:46;;;;;;;0.90;0.90;;;;;;;22.15;63.11;95712.72;4994574;28;20289;-26
2023/10/26 02:19:15;;;;;;;0.97;0.97;;;;;;;22.16;63.07;95712.72;4998565;28;20700;-26
2023/10/26 02:21:43;;;;;;;1.00;1.00;;;;;;;22.15;63.29;95718.69;4998531;28;20274;-30
2023/10/26 02:24:10;;;;;;;0.90;0.90;;;;;;;22.16;63.17;95728.06;5001493;28;20262;-26
2023/10/26 02:26:36;;;;;;;1.10;1.00;;;;;;;22.15;63.06;95716.13;4998839;28;20227;-26
2023/10/26 02:29:03;;;;;;;0.90;0.90;;;;;;;22.16;63.12;95715.25;4989945;28;20265;-26
2023/10/26 02:31:30;;;;;;;0.80;0.80;;;;;;;22.16;63.26;95715.25;4994164;28;20211;-31
2023/10/26 02:33:56;;;;;;;0.90;0.90;;;;;;;22.15;63.14;95718.69;4994319;28;20226;-29
2023/10/26 02:36:24;;;;;;;0.80;0.80;;;;;;;22.16;63.21;95714.41;4999152;28;20215;-26
2023/10/26 02:38:51;;;;;;;0.93;0.90;;;;;;;22.16;63.19;95716.97;4992554;28;20206;-26
2023/10/26 02:41:17;;;;;;;0.87;0.87;;;;;;;22.18;63.10;95720.38;4995679;28;20285;-26
2023/10/26 02:43:44;;;;;;;0.80;0.80;;;;;;;22.17;63.07;95716.13;4997314;28;20227;-29
2023/10/26 02:46:11;;;;;;;0.80;0.80;;;;;;;22.17;63.05;95716.13;4993047;28;20202;-26
2023/10/26 02:48:38;;;;;;;0.80;0.80;;;;;;;22.17;63.10;95713.56;4987907;28;20794;-26
2023/10/26 02:51:04;;;;;;;0.80;0.80;;;;;;;22.17;63.07;95708.44;4984593;28;20203;-26
2023/10/26 02:53:31;;;;;;;0.90;0.90;;;;;;;22.17;63.07;95708.44;4992911;28;20318;-26
2023/10/26 02:55:58;;;;;;;0.90;0.90;;;;;;;22.16;63.00;95704.16;4991412;28;20215;-26
2023/10/26 02:58:24;;;;;;;0.90;0.90;;;;;;;22.09;62.99;95694.81;4998934;28;20695;-26
2023/10/26 03:00:54;;;;;;;0.80;0.80;;;;;;;22.16;63.01;95715.25;4993014;28;20241;-27
2023/10/26 03:03:21;;;;;;;0.90;0.90;;;;;;;22.11;63.17;95700.78;4986881;28;20259;-26
2023/10/26 03:05:47;;;;;;;1.00;1.00;;;;;;;22.16;63.17;95715.25;4994510;28;20210;-26
2023/10/26 03:08:14;;;;;;;0.80;0.80;;;;;;;22.17;63.13;95723.81;4995858;28;20273;-26
2023/10/26 03:10:41;;;;;;;1.23;1.10;;;;;;;22.17;63.22;95713.56;4994355;28;20217;-28
2023/10/26 03:13:07;;;;;;;0.90;0.90;;;;;;;22.16;63.15;95715.25;4993665;28;20322;-28
2023/10/26 03:15:34;;;;;;;0.80;0.80;;;;;;;22.16;63.27;95720.38;4999673;28;20214;-26
2023/10/26 03:18:00;;;;;;;1.00;1.00;;;;;;;22.16;63.07;95722.94;4995934;28;20207;-27
2023/10/26 03:20:27;;;;;;;0.87;0.87;;;;;;;22.16;63.25;95724.63;4994007;28;20213;-26
2023/10/26 03:22:54;;;;;;;1.00;1.00;;;;;;;22.17;63.13;95726.34;4992843;28;20277;-29
2023/10/26 03:25:20;;;;;;;0.70;0.70;;;;;;;22.17;63.17;95726.34;4995813;28;20214;-27
2023/10/26 03:27:47;;;;;;;0.80;0.80;;;;;;;22.16;63.28;95725.50;4998648;28;20249;-26
2023/10/26 03:30:13;;;;;;;1.00;0.90;;;;;;;22.17;63.21;95721.25;4979471;28;20207;-26
2023/10/26 03:32:40;;;;;;;0.90;0.90;;;;;;;22.17;63.23;95724.63;4991965;28;20237;-29
2023/10/26 03:35:08;;;;;;;1.00;1.00;;;;;;;22.16;63.04;95729.75;4988642;28;20230;-26
2023/10/26 03:37:36;;;;;;;0.83;0.83;;;;;;;22.12;63.15;95728.94;4991415;28;20195;-26
2023/10/26 03:40:05;;;;;;;0.90;0.90;;;;;;;22.16;63.28;95734.88;4991712;28;20207;-26
2023/10/26 03:42:32;;;;;;;0.83;0.83;;;;;;;22.15;63.04;95726.38;4993061;28;20210;-27
2023/10/26 03:44:58;;;;;;;0.90;0.90;;;;;;;22.15;63.31;95728.91;4992610;28;20654;-35
2023/10/26 03:47:25;;;;;;;0.80;0.80;;;;;;;22.15;63.39;95734.03;4995546;28;20280;-30
2023/10/26 03:49:52;;;;;;;1.00;1.00;;;;;;;22.15;63.31;95723.81;4992984;28;20206;-26
2023/10/26 03:52:21;;;;;;;0.97;0.97;;;;;;;22.16;63.24;95728.06;4991788;28;20199;-26
2023/10/26 03:54:48;;;;;;;0.90;0.90;;;;;;;22.16;63.19;95729.75;4984022;28;20663;-27
2023/10/26 03:57:15;;;;;;;0.80;0.80;;;;;;;22.16;63.07;95739.97;4992622;28;20286;-26
2023/10/26 03:59:42;;;;;;;0.87;0.83;;;;;;;22.15;63.20;95728.91;4991930;28;20261;-33
2023/10/26 04:02:09;;;;;;;0.70;0.70;;;;;;;22.16;63.26;95728.06;4992507;28;20666;-26
2023/10/26 04:04:35;;;;;;;0.77;0.77;;;;;;;22.17;63.27;95726.34;4992120;28;20753;-28
2023/10/26 04:07:02;;;;;;;0.80;0.80;;;;;;;22.16;63.27;95727.19;4992255;28;20322;-26
2023/10/26 04:09:29;;;;;;;0.80;0.80;;;;;;;22.15;63.01;95718.69;4990294;28;20210;-27
2023/10/26 04:11:55;;;;;;;0.90;0.90;;;;;;;22.15;63.36;95716.13;4991581;28;20628;-26
2023/10/26 04:14:22;;;;;;;0.80;0.80;;;;;;;22.16;63.30;95711.84;4991868;28;20227;-27
2023/10/26 04:16:49;;;;;;;0.87;0.87;;;;;;;22.14;63.23;95706.72;4992026;28;20207;-28
2023/10/26 04:19:16;;;;;;;0.90;0.90;;;;;;;22.15;62.72;95710.16;4992063;28;20261;-30
2023/10/26 04:21:43;;;;;;;0.90;0.90;;;;;;;22.14;62.64;95704.16;4991373;28;20293;-27
2023/10/26 04:24:09;;;;;;;1.00;1.00;;;;;;;22.13;62.92;95709.28;4992167;28;20660;-26
2023/10/26 04:26:36;;;;;;;1.30;1.03;;;;;;;22.15;62.99;95705.91;4992294;28;20211;-28
2023/10/26 04:29:05;;;;;;;1.70;0.90;;;;;;;22.15;63.07;95707.59;4992094;28;20199;-27
2023/10/26 04:31:33;;;;;;;1.00;1.00;;;;;;;22.15;63.32;95705.91;4992267;28;20207;-26
2023/10/26 04:34:00;;;;;;;0.97;0.90;;;;;;;22.16;63.17;95706.72;4990109;28;20241;-26
2023/10/26 04:36:27;;;;;;;0.90;0.90;;;;;;;22.16;63.12;95710.16;4992413;28;20755;-26
2023/10/26 04:38:53;;;;;;;0.87;0.87;;;;;;;22.17;63.31;95706.72;4992285;28;20285;-26
2023/10/26 04:41:20;;;;;;;1.30;0.80;;;;;;;22.17;63.10;95704.16;4991757;28;20249;-26
2023/10/26 04:43:47;;;;;;;0.90;0.90;;;;;;;22.17;63.23;95711.84;4986140;28;20234;-29
2023/10/26 04:46:13;;;;;;;1.10;0.93;;;;;;;22.18;63.05;95713.56;4990264;28;20282;-27
2023/10/26 04:48:40;;;;;;;1.10;1.00;;;;;;;22.19;63.08;95714.41;4992273;28;20230;-27
2023/10/26 04:51:08;;;;;;;0.90;0.90;;;;;;;22.19;63.17;95712.69;4989850;28;20195;-26
2023/10/26 04:53:35;;;;;;;0.97;0.97;;;;;;;22.20;63.12;95711.00;4991923;28;20273;-26
2023/10/26 04:56:02;;;;;;;1.17;1.07;;;;;;;22.21;63.18;95712.69;5001481;28;20207;-26
2023/10/26 04:58:29;;;;;;;0.90;0.90;;;;;;;22.20;63.06;95713.56;4996221;28;20203;-26
2023/10/26 05:00:56;;;;;;;0.90;0.90;;;;;;;22.20;62.99;95713.56;5000977;28;20671;-29
2023/10/26 05:03:22;;;;;;;3.33;0.93;;;;;;;22.20;63.01;95716.13;5000842;28;20737;-26
2023/10/26 05:05:49;;;;;;;0.90;0.90;;;;;;;22.20;62.85;95716.13;4996093;28;20213;-26
2023/10/26 05:08:16;;;;;;;3.43;1.00;;;;;;;22.19;61.17;95707.59;4994557;28;20215;-27
2023/10/26 05:10:42;;;;;;;0.90;0.80;;;;;;;22.19;60.15;95711.84;4994546;28;20250;-26
2023/10/26 05:13:10;;;;;;;1.00;1.00;;;;;;;22.19;59.26;95720.38;4994937;28;20219;-27
2023/10/26 05:15:37;;;;;;;1.00;0.90;;;;;;;22.19;58.72;95712.69;4991790;28;20195;-27
2023/10/26 05:18:04;;;;;;;1.53;1.20;;;;;;;22.19;58.27;95716.94;4991822;28;20250;-26
2023/10/26 05:20:32;;;;;;;0.90;0.90;;;;;;;22.19;57.35;95716.94;4995854;28;20207;-27
2023/10/26 05:23:02;;;;;;;1.70;1.20;;;;;;;22.20;57.53;95714.38;4994375;28;20713;-26
2023/10/26 05:25:30;;;;;;;2.10;1.20;;;;;;;22.10;58.14;95684.56;4995546;28;20203;-28
2023/10/26 05:27:56;;;;;;;1.00;1.00;;;;;;;22.08;57.40;95676.03;4995232;28;20649;-26
2023/10/26 05:30:23;;;;;;;1.40;1.17;;;;;;;22.18;57.70;95693.09;4992907;28;20562;-27
2023/10/26 05:32:49;;;;;;;1.20;1.10;;;;;;;22.19;57.91;95689.66;4994815;28;20233;-29
2023/10/26 05:35:18;;;;;;;2.37;1.10;;;;;;;22.19;57.95;95691.38;4994889;28;20199;-26
2023/10/26 05:37:45;;;;;;;2.13;1.00;;;;;;;22.19;58.24;95692.22;4995436;28;20206;-26
2023/10/26 05:40:12;;;;;;;1.83;1.00;;;;;;;22.19;58.34;95694.78;4994206;28;20257;-26
2023/10/26 05:42:38;;;;;;;1.97;1.20;;;;;;;22.19;58.58;95689.66;4994850;28;20331;-26
2023/10/26 05:45:05;;;;;;;1.83;1.10;;;;;;;22.18;58.41;95685.41;5018727;22;20214;-23
2023/10/26 05:47:32;;;;;;;1.07;1.03;;;;;;;22.18;58.75;95685.41;5010182;28;20705;-25
2023/10/26 05:49:59;;;;;;;2.00;1.17;;;;;;;22.17;56.82;95693.94;5003470;28;20198;-24
2023/10/26 05:52:26;;;;;;;2.83;1.33;;;;;;;22.17;55.74;95691.38;5011336;28;20206;-23
2023/10/26 05:54:53;;;;;;;1.90;1.23;;;;;;;22.17;56.23;95693.94;4995138;28;20663;-22
2023/10/26 05:57:20;;;;;;;5.47;1.50;;;;;;;22.18;57.05;95694.78;4997355;28;20360;-26
2023/10/26 05:59:47;;;;;;;3.83;1.30;;;;;;;22.18;57.29;95692.22;4995887;28;20222;-27
2023/10/26 06:02:14;;;;;;;1.23;1.13;;;;;;;22.18;57.68;95693.09;4995279;28;20209;-24
2023/10/26 06:04:40;;;;;;;2.63;1.47;;;;;;;22.20;58.06;95705.88;4999136;28;20276;-24
2023/10/26 06:07:07;;;;;;;1.27;1.17;;;;;;;22.20;58.24;95705.88;4996710;28;21398;-25
2023/10/26 06:09:34;;;;;;;2.47;1.20;;;;;;;22.20;58.50;95709.28;4998340;28;20309;-24
2023/10/26 06:12:00;;;;;;;2.30;1.13;;;;;;;22.20;58.56;95709.28;4999252;28;20212;-23
2023/10/26 06:14:27;;;;;;;1.73;1.10;;;;;;;22.22;58.74;95709.28;4968466;28;20227;-26
2023/10/26 06:16:54;;;;;;;1.00;1.00;;;;;;;22.21;58.74;95712.69;4997149;28;20210;-23
2023/10/26 06:19:20;;;;;;;1.43;1.00;;;;;;;22.21;58.91;95715.25;4995665;28;20497;-28
2023/10/26 06:21:47;;;;;;;1.70;1.13;;;;;;;22.21;58.89;95718.69;4982995;28;20293;-33
2023/10/26 06:24:13;;;;;;;2.07;1.10;;;;;;;22.20;58.84;95714.38;4998593;28;20317;-22
2023/10/26 06:26:40;;;;;;;1.37;1.10;;;;;;;22.21;59.09;95720.38;5000598;28;20210;-23
2023/10/26 06:29:06;;;;;;;1.53;1.10;;;;;;;22.20;59.15;95731.47;5000668;28;20663;-24
2023/10/26 06:31:33;;;;;;;2.73;1.30;;;;;;;22.20;59.49;95716.94;4999734;28;20305;-22
2023/10/26 06:34:00;;;;;;;1.93;1.23;;;;;;;22.21;59.49;95720.38;4999664;28;20227;-28
2023/10/26 06:36:26;;;;;;;2.30;1.20;;;;;;;22.11;59.73;95706.72;4998622;28;20305;-27
2023/10/26 06:38:54;;;;;;;1.33;1.23;;;;;;;22.20;59.78;95716.94;4979653;28;20202;-28
2023/10/26 06:41:20;;;;;;;1.80;1.07;;;;;;;22.21;59.74;95712.69;4998078;28;20256;-26
2023/10/26 06:43:47;;;;;;;2.10;1.10;;;;;;;22.21;59.96;95712.69;4994857;28;20222;-26
2023/10/26 06:46:14;;;;;;;1.13;1.00;;;;;;;22.22;59.88;95711.84;4999435;28;20233;-24
2023/10/26 06:48:41;;;;;;;1.43;1.10;;;;;;;22.21;59.66;95712.69;4998945;28;20219;-23
2023/10/26 06:51:07;;;;;;;1.80;1.20;;;;;;;22.21;60.08;95718.69;4997769;28;22357;-24
2023/10/26 06:53:34;;;;;;;1.30;1.20;;;;;;;22.23;59.97;95716.94;4996922;28;20225;-28
2023/10/26 06:56:00;;;;;;;1.37;1.10;;;;;;;22.23;60.14;95713.56;4997612;28;20664;-24
2023/10/26 06:58:27;;;;;;;2.10;1.10;;;;;;;22.22;60.20;95707.56;5001476;28;20208;-24
2023/10/26 07:00:54;;;;;;;1.03;1.00;;;;;;;22.22;59.90;95706.72;5010844;28;20280;-36
2023/10/26 07:03:21;;;;;;;1.53;1.30;;;;;;;22.22;60.09;95714.38;5005569;28;20265;-24
2023/10/26 07:05:48;;;;;;;1.13;1.03;;;;;;;22.21;59.91;95713.56;5002301;28;20265;-24
2023/10/26 07:08:15;;;;;;;1.33;1.10;;;;;;;22.21;60.18;95712.69;5003113;28;20222;-24
2023/10/26 07:10:42;;;;;;;1.33;1.10;;;;;;;22.21;60.24;95720.38;4996173;28;20207;-32
2023/10/26 07:13:10;;;;;;;1.80;1.20;;;;;;;22.21;60.40;95715.25;4996542;28;20239;-23
2023/10/26 07:15:37;;;;;;;3.50;1.20;;;;;;;22.21;60.67;95717.81;4992801;28;20210;-22
2023/10/26 07:18:04;;;;;;;4.30;1.40;;;;;;;22.21;60.32;95712.69;4994535;28;20211;-25
2023/10/26 07:20:31;;;;;;;4.00;1.53;;;;;;;22.22;60.42;95719.50;4992432;28;20655;-24
2023/10/26 07:22:58;;;;;;;5.33;1.40;;;;;;;22.23;60.35;95716.13;4993760;28;20642;-30
2023/10/26 07:25:24;;;;;;;2.10;1.30;;;;;;;22.24;60.52;95715.25;4996382;28;20648;-28
2023/10/26 07:27:51;;;;;;;1.83;1.40;;;;;;;22.24;60.48;95713.56;4993156;28;20457;-24
2023/10/26 07:30:18;;;;;;;3.57;1.40;;;;;;;22.24;60.33;95707.56;4993607;28;20210;-26
2023/10/26 07:32:44;;;;;;;1.53;1.13;;;;;;;22.24;60.26;95711.00;4996370;28;20221;-29
2023/10/26 07:35:13;;;;;;;2.77;1.33;;;;;;;22.25;60.29;95712.69;4996583;28;20226;-23
2023/10/26 07:37:40;;;;;;;2.20;1.20;;;;;;;22.24;60.41;95711.00;4998283;28;20211;-24
2023/10/26 07:40:07;;;;;;;3.63;1.77;;;;;;;22.24;60.35;95720.38;4996335;28;20574;-25
2023/10/26 07:42:53;;;;;;;3.47;1.20;;;;;;;22.24;60.45;95731.47;4992804;28;20692;-22
2023/10/26 07:45:20;;;;;;;4.40;1.33;;;;;;;22.24;60.43;95722.94;4988659;28;20309;-30
2023/10/26 07:47:47;;;;;;;2.10;1.30;;;;;;;22.23;60.53;95727.19;4992343;28;20221;-25
2023/10/26 07:50:17;;;;;;;1.50;1.30;;;;;;;22.23;60.64;95722.06;4993943;28;20214;-28
2023/10/26 07:52:43;;;;;;;2.27;1.40;;;;;;;22.23;60.74;95726.34;4993522;28;20661;-23
2023/10/26 07:55:10;;;;;;;4.07;1.40;;;;;;;22.23;60.65;95719.50;4991012;28;20313;-24
2023/10/26 07:57:37;;;;;;;3.57;1.53;;;;;;;22.23;60.60;95716.94;4994214;28;20577;-24
2023/10/26 08:00:04;;;;;;;3.57;1.50;;;;;;;22.23;60.73;95709.28;4994101;28;20261;-33
2023/10/26 08:02:32;;;;;;;2.40;1.37;;;;;;;21.18;60.86;95533.88;4991046;28;20480;-25
2023/10/26 08:05:01;;;;;;;3.40;1.23;;;;;;;22.23;60.83;95716.94;4992957;28;20226;-23
2023/10/26 08:07:27;;;;;;;7.40;1.33;;;;;;;22.23;60.95;95722.06;4976216;28;20214;-26
2023/10/26 08:09:54;;;;;;;1.60;1.23;;;;;;;22.23;60.70;95716.13;4997201;28;20301;-23
2023/10/26 08:12:20;;;;;;;3.10;1.50;;;;;;;22.24;60.69;95720.38;4996460;28;20207;-24
2023/10/26 08:14:47;;;;;;;2.97;1.20;;;;;;;22.23;60.80;95722.06;4993210;28;20778;-23
2023/10/26 08:17:37;;;;;;;2.23;1.20;;;;;;;22.23;60.91;95726.34;4992665;28;20202;-24
2023/10/26 08:20:07;;;;;;;1.70;1.30;;;;;;;22.22;60.71;95725.47;4995805;28;20206;-23
2023/10/26 08:22:34;;;;;;;5.87;1.50;;;;;;;22.22;60.78;95720.38;4994250;28;20218;-27
2023/10/26 08:25:03;;;;;;;2.13;1.30;;;;;;;22.21;60.80;95721.22;4998666;28;20240;-24
2023/10/26 08:27:30;;;;;;;1.10;1.00;;;;;;;22.21;60.80;95722.94;4998369;28;20304;-23
2023/10/26 08:29:56;;;;;;;1.80;1.20;;;;;;;22.22;60.86;95724.63;4998530;28;20221;-34
2023/10/26 08:32:23;;;;;;;4.33;1.47;;;;;;;22.21;61.08;95723.78;4996916;28;20229;-24
2023/10/26 08:34:50;;;;;;;1.77;1.20;;;;;;;22.22;61.00;95727.19;4998666;28;20221;-24
2023/10/26 08:37:17;;;;;;;6.17;1.43;;;;;;;22.22;60.97;95722.94;5000152;28;20210;-23
2023/10/26 08:39:44;;;;;;;8.33;1.30;;;;;;;22.18;60.78;95722.94;5001102;28;20713;-23
2023/10/26 08:42:11;;;;;;;5.73;1.50;;;;;;;22.22;61.08;95717.81;5001826;28;20573;-23
2023/10/26 08:44:42;;;;;;;10.33;1.83;;;;;;;22.22;61.08;95717.81;4996688;28;20726;-31
2023/10/26 08:47:11;;;;;;;4.10;1.43;;;;;;;22.20;60.92;95713.56;4994549;28;20214;-40
2023/10/26 08:49:38;;;;;;;9.17;1.97;;;;;;;22.22;60.99;95710.13;4997794;28;20226;-25
2023/10/26 08:52:04;;;;;;;4.97;1.80;;;;;;;22.23;60.99;95703.31;4964610;28;20214;-24
2023/10/26 08:54:31;;;;;;;2.53;1.50;;;;;;;22.23;60.92;95695.66;4997441;28;21403;-24
2023/10/26 08:57:07;;;;;;;5.23;1.90;;;;;;;22.03;61.06;95659.88;4994540;28;20206;-23
2023/10/26 08:59:34;;;;;;;9.40;1.90;;;;;;;22.23;60.90;95700.75;4981648;28;20198;-25
2023/10/26 09:02:01;;;;;;;7.70;1.90;;;;;;;22.23;60.95;95699.03;4995928;28;20291;-24
2023/10/26 09:04:28;;;;;;;9.77;2.30;;;;;;;22.22;60.98;95699.03;4996476;28;20236;-27
2023/10/26 09:06:55;;;;;;;3.33;1.60;;;;;;;22.22;61.02;95699.91;4961792;28;20207;-23
2023/10/26 09:09:21;;;;;;;5.00;1.50;;;;;;;22.22;61.06;95701.59;4995906;28;20250;-30
2023/10/26 09:11:49;;;;;;;5.37;1.80;;;;;;;22.22;60.91;95709.28;4997565;28;20211;-29
2023/10/26 09:14:17;;;;;;;5.30;1.80;;;;;;;22.22;61.07;95701.59;4995585;28;20690;-24
2023/10/26 09:16:45;;;;;;;5.87;1.50;;;;;;;22.22;61.12;95699.03;4995071;28;20214;-26
2023/10/26 09:19:13;;;;;;;5.43;1.93;;;;;;;22.22;61.04;95701.59;4997719;28;20951;-29
2023/10/26 09:21:49;;;;;;;6.63;1.80;;;;;;;22.23;61.17;95705.88;4994722;28;20213;-24
2023/10/26 09:24:26;;;;;;;9.10;1.87;;;;;;;22.24;61.03;95712.69;4999931;28;20230;-23
2023/10/26 09:26:56;;;;;;;6.57;2.13;;;;;;;22.23;61.24;95711.81;4995854;28;20214;-26
2023/10/26 09:29:36;;;;;;;8.70;2.30;;;;;;;22.23;61.34;95711.00;4996184;28;20651;-25
2023/10/26 09:32:04;;;;;;;6.60;2.00;;;;;;;22.24;61.10;95715.25;4996959;28;20285;-25
2023/10/26 09:34:30;;;;;;;5.90;2.07;;;;;;;22.25;60.84;95722.06;4997917;28;20301;-23
2023/10/26 09:37:02;;;;;;;10.47;2.20;;;;;;;22.25;61.20;95716.94;4999742;28;20230;-24
2023/10/26 09:39:31;;;;;;;13.67;2.47;;;;;;;22.25;61.10;95717.81;5005085;28;20320;-23
2023/10/26 09:41:59;;;;;;;10.23;2.67;;;;;;;22.25;61.14;95706.72;5000521;28;20294;-23
2023/10/26 09:44:26;;;;;;;19.63;4.03;;;;;;;22.25;61.26;95712.69;5002330;28;20286;-23
2023/10/26 09:46:52;;;;;;;23.83;4.43;;;;;;;22.25;61.07;95712.69;5002243;28;20202;-23
2023/10/26 09:49:19;;;;;;;24.17;5.03;;;;;;;22.25;61.33;95707.56;4965880;28;20304;-24
2023/10/26 09:51:46;;;;;;;20.70;4.23;;;;;;;22.25;61.25;95705.00;4961859;28;20269;-35
2023/10/26 09:54:13;;;;;;;22.30;4.13;;;;;;;22.25;61.27;95702.44;4998638;28;20254;-25
2023/10/26 09:56:41;;;;;;;33.10;5.63;;;;;;;22.26;61.26;95706.69;4981030;28;20206;-36
2023/10/26 09:59:08;;;;;;;29.50;5.37;;;;;;;22.22;61.42;95699.91;4992496;28;20968;-23
2023/10/26 10:01:39;;;;;;;25.07;4.87;;;;;;;22.28;61.32;95709.25;4981668;28;20289;-23
2023/10/26 10:04:08;;;;;;;34.97;5.13;;;;;;;22.28;61.36;95711.81;4994758;28;20222;-24
2023/10/26 10:06:52;;;;;;;31.27;5.30;;;;;;;22.27;61.46;95723.78;4995112;28;20214;-24
2023/10/26 10:09:23;;;;;;;26.50;5.10;;;;;;;22.28;61.49;95724.59;4993832;28;20349;-23
2023/10/26 10:12:06;;;;;;;31.23;5.70;;;;;;;22.27;61.34;95713.53;4997130;28;20211;-30
2023/10/26 10:14:48;;;;;;;23.80;5.37;;;;;;;22.26;61.44;95711.81;4994407;28;20227;-26
2023/10/26 10:17:19;;;;;;;28.03;6.00;;;;;;;22.28;61.41;95730.59;4994878;28;20568;-29
2023/10/26 10:19:46;;;;;;;21.47;4.47;;;;;;;22.27;61.35;95728.91;4994729;28;20727;-31
2023/10/26 10:22:38;;;;;;;27.53;4.60;;;;;;;22.26;61.43;95729.72;4994813;28;20722;-23
2023/10/26 10:25:05;;;;;;;23.37;4.70;;;;;;;22.26;61.58;95736.59;4993424;28;20579;-25
2023/10/26 10:27:32;;;;;;;24.57;5.20;;;;;;;22.25;61.47;95727.19;4996319;28;20209;-23
2023/10/26 10:30:04;;;;;;;18.43;4.90;;;;;;;22.24;61.47;95739.13;4995063;28;20260;-31
2023/10/26 10:32:43;;;;;;;19.53;4.67;;;;;;;22.25;61.54;95737.41;4979440;28;20752;-23
2023/10/26 10:35:11;;;;;;;22.10;4.43;;;;;;;22.24;61.38;95726.34;4997780;28;20234;-25
2023/10/26 10:37:37;;;;;;;19.27;5.10;;;;;;;22.25;61.56;95737.41;4996307;28;20684;-33
2023/10/26 10:40:17;;;;;;;18.23;4.20;;;;;;;22.25;61.60;95728.03;4993691;28;20313;-42
2023/10/26 10:42:48;;;;;;;19.00;4.30;;;;;;;22.25;61.60;95725.47;4991318;28;20203;-31
2023/10/26 10:45:15;;;;;;;18.17;4.77;;;;;;;22.26;61.67;95729.72;4992984;28;20330;-27
2023/10/26 10:47:43;;;;;;;18.97;4.60;;;;;;;22.27;61.52;95723.78;4996506;28;20206;-25
2023/10/26 10:50:23;;;;;;;22.43;5.03;;;;;;;22.28;61.41;95719.50;4994606;28;20594;-24
2023/10/26 10:52:54;;;;;;;17.17;4.10;;;;;;;22.27;61.43;95712.69;4992205;28;20207;-28
2023/10/26 10:55:27;;;;;;;16.93;4.40;;;;;;;22.28;61.50;95714.38;4993078;28;20222;-25
2023/10/26 10:58:01;;;;;;;17.77;4.27;;;;;;;22.28;61.41;95707.56;4994088;28;20309;-31
2023/10/26 11:00:48;;;;;;;15.50;4.07;;;;;;;22.28;61.40;95701.59;4995025;28;20206;-27
2023/10/26 11:03:19;;;;;;;16.00;3.93;;;;;;;22.28;61.53;95706.69;4995878;28;20207;-26
2023/10/26 11:05:46;;;;;;;20.03;4.03;;;;;;;22.26;61.66;95703.31;4994729;28;20925;-33
2023/10/26 11:08:12;;;;;;;15.73;3.90;;;;;;;22.28;61.24;95709.25;4995517;28;20256;-29
2023/10/26 11:10:39;;;;;;;14.03;4.17;;;;;;;22.26;61.58;95703.31;4992069;28;20289;-26
2023/10/26 11:13:05;;;;;;;15.13;4.23;;;;;;;22.27;61.43;95712.69;4997228;28;20223;-24
2023/10/26 11:15:36;;;;;;;20.10;4.20;;;;;;;22.26;61.53;95711.81;4995494;28;20230;-30
2023/10/26 11:18:04;;;;;;;14.43;4.10;;;;;;;22.26;61.68;95700.75;4993276;28;20213;-34
2023/10/26 11:20:38;;;;;;;15.43;3.50;;;;;;;22.25;61.64;95705.00;4994907;28;20685;-31
2023/10/26 11:23:05;;;;;;;16.30;4.13;;;;;;;22.26;61.80;95700.75;4997452;28;20214;-25
2023/10/26 11:25:32;;;;;;;14.83;3.50;;;;;;;22.26;61.71;95699.03;4996747;28;20729;-23
2023/10/26 11:27:59;;;;;;;9.90;3.13;;;;;;;22.25;61.68;95694.78;4996779;28;20210;-28
2023/10/26 11:30:25;;;;;;;14.33;3.70;;;;;;;22.26;61.69;95704.16;4995415;28;20788;-23
2023/10/26 11:32:52;;;;;;;11.63;3.53;;;;;;;22.25;61.68;95699.91;4999369;28;20203;-23
2023/10/26 11:35:19;;;;;;;16.33;3.80;;;;;;;22.25;61.71;95670.88;4995720;28;20222;-24